Airport ICAO


11:53 UTC

25°C

Clear skies


An affordable passengers' Moving Map for your aircraft. Made for the iPad and the iPhone
More information here

LFLN


Saint Yan FRANCE   VFR CAVOK


METAR LFLN 191130Z AUTO 01004KT 270V050 CAVOK 25/12 Q1026 NOSIG 0h23min

TAF LFLN 191100Z 1912/1921 03005KT CAVOK 0h53min





NOTAMS

OPEN